Itamonte, Brazil
Current Conditions -  °F | °C
As of 7:00 PM on Thursday 23 Oct 2014 (Local Time) from SBSC Reporting Station
Clear Clear  
Wind Chill: 73°   Ceiling: Unl
Heat Index: 73°   Visibility: 6mi
Dew Point: 61°   Wind: 12mph
Humidity: 65%   Direction: 130°SE
Pressure: 30"   Gusts: NA
Location:  22.28°S, 44.87°W
Report Text: SBSC 232100Z 13010KT CAVOK 23/16 Q1016
Loading
Personal Weather Stations






























Interactive Weather Map
Tropical Storm Tracking
New forecast layout! Learn more

10-Day Weather Forecast

Advertisements
Track Severe Weather on mobile